Time;durP1;ratioP1;P1;durP2;ratioP2;P2;SDS_P1;SDS_P2;PMS_P1;PMS_P2;Temp;Humidity;BMP_temperature;BMP_pressure;BME280_temperature;BME280_humidity;BME280_pressure;Samples;Min_cycle;Max_cycle;Signal;HPM_P1;HPM_P2
2022/01/08 00:02:04;;;;;;;;;;;0.90;99.90;;;;;;5086162;28;20335;-45
2022/01/08 00:04:30;;;;;;;;;;;0.90;99.90;;;;;;5072946;28;19915;-44
2022/01/08 00:06:56;;;;;;;;;;;0.90;99.90;;;;;;5051204;28;19919;-44
2022/01/08 00:09:22;;;;;;;;;;;0.80;99.90;;;;;;5072361;28;19998;-43
2022/01/08 00:11:48;;;;;;;;;;;0.70;99.90;;;;;;5072014;28;20003;-46
2022/01/08 00:14:14;;;;;;;;;;;0.90;99.90;;;;;;5057110;28;19916;-45
2022/01/08 00:16:41;;;;;;;;;;;0.90;99.90;;;;;;5065080;28;19924;-44
2022/01/08 00:19:07;;;;;;;;;;;0.90;99.90;;;;;;5078145;28;19924;-45
2022/01/08 00:21:33;;;;;;;;;;;0.90;99.90;;;;;;5064991;28;19946;-45
2022/01/08 00:23:59;;;;;;;;;;;0.90;99.90;;;;;;5059334;28;19924;-48
2022/01/08 00:26:26;;;;;;;;;;;0.90;99.90;;;;;;5064680;28;19930;-46
2022/01/08 00:28:52;;;;;;;;;;;0.90;99.90;;;;;;5042654;28;19920;-44
2022/01/08 00:31:18;;;;;;;;;;;0.90;99.90;;;;;;5045341;28;19920;-46
2022/01/08 00:33:44;;;;;;;;;;;0.90;99.90;;;;;;5060586;28;19917;-47
2022/01/08 00:36:10;;;;;;;;;;;1.00;99.90;;;;;;5045552;28;19920;-45
2022/01/08 00:38:35;;;;;;;;;;;0.90;99.90;;;;;;5056524;28;19916;-45
2022/01/08 00:41:01;;;;;;;;;;;0.90;99.90;;;;;;5063755;28;19924;-46
2022/01/08 00:43:29;;;;;;;;;;;1.00;99.90;;;;;;5066158;28;19962;-46
2022/01/08 00:45:54;;;;;;;;;;;1.00;99.90;;;;;;5063349;28;19923;-44
2022/01/08 00:48:20;;;;;;;;;;;1.10;99.90;;;;;;5050136;28;19924;-46
2022/01/08 00:50:46;;;;;;;;;;;1.10;99.90;;;;;;5064178;28;20562;-44
2022/01/08 00:53:11;;;;;;;;;;;1.10;99.90;;;;;;5029772;28;20384;-44
2022/01/08 00:55:37;;;;;;;;;;;1.00;99.90;;;;;;5049046;28;19920;-44
2022/01/08 00:58:03;;;;;;;;;;;1.20;99.90;;;;;;5066061;28;19967;-44
2022/01/08 01:00:29;;;;;;;;;;;1.10;99.90;;;;;;5065796;28;19916;-44
2022/01/08 01:02:54;;;;;;;;;;;1.10;99.90;;;;;;5029286;28;20558;-44
2022/01/08 01:05:21;;;;;;;;;;;1.00;99.90;;;;;;5064988;28;19923;-44
2022/01/08 01:07:47;;;;;;;;;;;1.10;99.90;;;;;;5065262;28;20011;-45
2022/01/08 01:10:13;;;;;;;;;;;0.90;99.90;;;;;;5045946;28;19925;-47
2022/01/08 01:12:39;;;;;;;;;;;1.20;99.90;;;;;;5064928;28;20323;-45
2022/01/08 01:15:05;;;;;;;;;;;0.90;99.90;;;;;;5064019;28;20366;-44
2022/01/08 01:17:31;;;;;;;;;;;1.10;99.90;;;;;;5058675;28;19997;-45
2022/01/08 01:19:57;;;;;;;;;;;0.90;99.90;;;;;;5030852;28;19921;-45
2022/01/08 01:22:28;;;;;;;;;;;1.10;99.90;;;;;;5063935;28;19968;-45
2022/01/08 01:25:06;;;;;;;;;;;1.00;99.90;;;;;;5050223;28;19961;-45
2022/01/08 01:30:20;;;;;;;;;;;1.00;99.90;;;;;;5056738;28;20012;-45
2022/01/08 01:49:02;;;;;;;;;;;0.90;99.90;;;;;;5053897;28;19920;-45
2022/01/08 01:51:27;;;;;;;;;;;0.80;99.90;;;;;;5051553;28;19935;-44
2022/01/08 01:53:53;;;;;;;;;;;1.00;99.90;;;;;;5068613;28;19932;-44
2022/01/08 01:56:20;;;;;;;;;;;0.90;99.90;;;;;;5067095;28;19920;-46
2022/01/08 01:58:47;;;;;;;;;;;1.00;99.90;;;;;;5030370;28;19924;-42
2022/01/08 02:01:12;;;;;;;;;;;0.90;99.90;;;;;;5069624;28;19925;-45
2022/01/08 02:03:39;;;;;;;;;;;1.10;99.90;;;;;;5065992;28;20038;-47
2022/01/08 02:06:07;;;;;;;;;;;1.00;99.90;;;;;;5052498;28;19916;-47
2022/01/08 02:08:37;;;;;;;;;;;0.90;99.90;;;;;;5035107;28;20023;-43
2022/01/08 02:11:03;;;;;;;;;;;1.10;99.90;;;;;;5058583;28;20028;-46
2022/01/08 02:13:29;;;;;;;;;;;1.10;99.90;;;;;;5087590;28;20334;-47
2022/01/08 02:15:55;;;;;;;;;;;1.00;99.90;;;;;;5053526;28;19974;-44
2022/01/08 02:18:23;;;;;;;;;;;1.30;99.90;;;;;;5049154;28;19924;-45
2022/01/08 02:20:48;;;;;;;;;;;1.30;99.90;;;;;;5093335;28;20411;-45
2022/01/08 02:23:15;;;;;;;;;;;1.10;99.90;;;;;;5071361;28;19916;-44
2022/01/08 02:25:41;;;;;;;;;;;1.10;99.90;;;;;;5049433;28;19924;-44
2022/01/08 02:28:08;;;;;;;;;;;1.10;99.90;;;;;;5048787;28;19920;-47
2022/01/08 02:30:34;;;;;;;;;;;1.20;99.90;;;;;;5091132;28;20364;-45
2022/01/08 02:33:00;;;;;;;;;;;1.30;99.90;;;;;;5054008;28;19923;-44
2022/01/08 02:35:26;;;;;;;;;;;1.30;99.90;;;;;;5058471;28;20374;-43
2022/01/08 02:37:53;;;;;;;;;;;1.20;99.90;;;;;;5067596;28;19950;-45
2022/01/08 02:40:20;;;;;;;;;;;1.20;99.90;;;;;;5051275;28;19916;-43
2022/01/08 02:42:51;;;;;;;;;;;1.10;99.90;;;;;;5060955;28;20355;-45
2022/01/08 02:45:18;;;;;;;;;;;1.20;99.90;;;;;;5032645;28;19916;-46
2022/01/08 02:47:44;;;;;;;;;;;1.20;99.90;;;;;;5062671;28;19916;-45
2022/01/08 02:50:13;;;;;;;;;;;1.10;99.90;;;;;;5049297;28;20320;-43
2022/01/08 02:52:43;;;;;;;;;;;1.10;99.90;;;;;;5055328;28;19924;-45
2022/01/08 02:55:10;;;;;;;;;;;1.00;99.90;;;;;;5071322;28;19939;-49
2022/01/08 02:57:36;;;;;;;;;;;1.10;99.90;;;;;;5047324;28;19935;-45
2022/01/08 03:00:04;;;;;;;;;;;0.90;99.90;;;;;;5046618;28;19921;-45
2022/01/08 03:02:30;;;;;;;;;;;1.00;99.90;;;;;;5067501;28;19920;-45
2022/01/08 03:04:55;;;;;;;;;;;0.90;99.90;;;;;;5063520;28;20255;-45
2022/01/08 03:07:21;;;;;;;;;;;0.80;99.90;;;;;;5075884;28;20371;-44
2022/01/08 03:09:56;;;;;;;;;;;0.80;99.90;;;;;;5069329;28;19928;-45
2022/01/08 03:12:24;;;;;;;;;;;0.80;99.90;;;;;;5033770;28;19923;-44
2022/01/08 03:14:52;;;;;;;;;;;0.80;99.90;;;;;;5049304;28;19916;-46
2022/01/08 03:17:27;;;;;;;;;;;0.70;99.90;;;;;;5065434;28;19996;-44
2022/01/08 03:19:54;;;;;;;;;;;0.80;99.90;;;;;;5042925;28;20400;-45
2022/01/08 03:22:20;;;;;;;;;;;0.70;99.90;;;;;;5047770;28;20373;-44
2022/01/08 03:24:46;;;;;;;;;;;0.70;99.90;;;;;;5051954;28;19932;-44
2022/01/08 03:27:12;;;;;;;;;;;0.50;99.90;;;;;;5066196;28;19939;-44
2022/01/08 03:29:38;;;;;;;;;;;0.60;99.90;;;;;;5049439;28;20034;-45
2022/01/08 03:32:04;;;;;;;;;;;0.70;99.90;;;;;;5048235;28;20610;-45
2022/01/08 03:34:29;;;;;;;;;;;0.80;99.90;;;;;;5063402;28;19962;-47
2022/01/08 03:36:55;;;;;;;;;;;0.80;99.90;;;;;;5058750;28;20437;-48
2022/01/08 03:39:33;;;;;;;;;;;;;;;;;;5051546;28;19979;-44
2022/01/08 03:42:00;;;;;;;;;;;;;;;;;;5064214;28;19925;-44
2022/01/08 03:44:25;;;;;;;;;;;0.50;99.90;;;;;;5064237;28;19916;-46
2022/01/08 03:46:51;;;;;;;;;;;0.50;99.90;;;;;;5048676;28;20263;-43
2022/01/08 03:49:25;;;;;;;;;;;0.50;99.90;;;;;;5070324;28;19916;-44
2022/01/08 03:51:52;;;;;;;;;;;0.50;99.90;;;;;;5052981;28;19921;-48
2022/01/08 03:54:18;;;;;;;;;;;0.50;99.90;;;;;;5044990;28;20070;-44
2022/01/08 03:56:44;;;;;;;;;;;0.40;99.90;;;;;;5065062;28;20371;-44
2022/01/08 03:59:10;;;;;;;;;;;0.40;99.90;;;;;;5030300;28;19930;-44
2022/01/08 04:01:36;;;;;;;;;;;0.40;99.90;;;;;;5062240;28;19999;-45
2022/01/08 04:04:02;;;;;;;;;;;0.40;99.90;;;;;;5045380;28;20316;-44
2022/01/08 04:06:28;;;;;;;;;;;0.40;99.90;;;;;;5053067;28;19989;-44
2022/01/08 04:08:58;;;;;;;;;;;0.40;99.90;;;;;;5067638;28;20381;-45
2022/01/08 04:11:27;;;;;;;;;;;0.40;99.90;;;;;;5042393;28;19921;-44
2022/01/08 04:13:54;;;;;;;;;;;0.40;99.90;;;;;;5060601;28;19921;-47
2022/01/08 04:16:27;;;;;;;;;;;0.40;99.90;;;;;;5047693;28;20410;-45
2022/01/08 04:18:52;;;;;;;;;;;0.40;99.90;;;;;;5064814;28;19952;-46
2022/01/08 04:23:54;;;;;;;;;;;0.40;99.90;;;;;;5068833;28;19923;-46
2022/01/08 04:26:23;;;;;;;;;;;0.40;99.90;;;;;;5070152;28;20346;-44
2022/01/08 04:28:50;;;;;;;;;;;0.40;99.90;;;;;;5066966;28;20008;-46
2022/01/08 04:31:15;;;;;;;;;;;0.40;99.90;;;;;;5035114;28;19932;-45
2022/01/08 04:33:44;;;;;;;;;;;0.40;99.90;;;;;;5059299;28;19925;-44
2022/01/08 04:36:10;;;;;;;;;;;0.30;99.90;;;;;;5068121;28;19946;-44
2022/01/08 04:38:36;;;;;;;;;;;0.40;99.90;;;;;;5068689;28;19924;-43
2022/01/08 04:41:03;;;;;;;;;;;0.40;99.90;;;;;;5064312;28;20012;-46
2022/01/08 04:43:29;;;;;;;;;;;0.40;99.90;;;;;;5066655;28;19928;-44
2022/01/08 04:45:55;;;;;;;;;;;0.40;99.90;;;;;;5066383;28;20603;-44
2022/01/08 04:48:21;;;;;;;;;;;0.40;99.90;;;;;;5066856;28;19959;-46
2022/01/08 04:50:47;;;;;;;;;;;0.40;99.90;;;;;;5068079;28;19967;-44
2022/01/08 04:53:13;;;;;;;;;;;0.50;99.90;;;;;;5066084;28;19916;-44
2022/01/08 04:55:40;;;;;;;;;;;0.60;99.90;;;;;;5051973;28;19920;-44
2022/01/08 04:58:07;;;;;;;;;;;0.60;99.90;;;;;;5083523;28;19977;-44
2022/01/08 05:00:33;;;;;;;;;;;0.70;99.90;;;;;;5064266;28;20312;-46
2022/01/08 05:02:59;;;;;;;;;;;0.90;99.90;;;;;;5061883;28;20038;-45
2022/01/08 05:05:25;;;;;;;;;;;0.90;99.90;;;;;;5067473;28;19920;-47
2022/01/08 05:07:51;;;;;;;;;;;1.00;99.90;;;;;;5057896;28;20194;-45
2022/01/08 05:10:17;;;;;;;;;;;1.10;99.90;;;;;;5066971;28;19920;-46
2022/01/08 05:12:44;;;;;;;;;;;1.00;99.90;;;;;;5051540;28;19916;-45
2022/01/08 05:15:11;;;;;;;;;;;1.10;99.90;;;;;;5071222;28;19942;-45
2022/01/08 05:17:39;;;;;;;;;;;1.00;99.90;;;;;;5051582;28;19924;-44
2022/01/08 05:20:06;;;;;;;;;;;1.00;99.90;;;;;;5051460;28;20252;-45
2022/01/08 05:22:51;;;;;;;;;;;1.00;99.90;;;;;;5058909;28;20444;-46
2022/01/08 05:25:18;;;;;;;;;;;1.00;99.90;;;;;;5047645;28;19921;-45
2022/01/08 05:27:44;;;;;;;;;;;1.00;99.90;;;;;;5053665;28;20339;-48
2022/01/08 05:30:12;;;;;;;;;;;1.00;99.90;;;;;;5069873;28;19923;-44
2022/01/08 05:32:38;;;;;;;;;;;0.90;99.90;;;;;;5050435;28;19924;-47
2022/01/08 05:35:04;;;;;;;;;;;0.90;99.90;;;;;;5052564;28;19927;-46
2022/01/08 05:37:31;;;;;;;;;;;0.90;99.90;;;;;;5051216;28;20393;-44
2022/01/08 05:39:57;;;;;;;;;;;0.80;99.90;;;;;;5069692;28;19916;-49
2022/01/08 05:42:23;;;;;;;;;;;0.80;99.90;;;;;;5053653;28;20019;-45
2022/01/08 05:44:49;;;;;;;;;;;0.80;99.90;;;;;;5071654;28;19916;-48
2022/01/08 05:47:15;;;;;;;;;;;0.70;99.90;;;;;;5053151;28;19962;-47
2022/01/08 05:49:41;;;;;;;;;;;0.70;99.90;;;;;;5039349;28;20309;-45
2022/01/08 05:52:07;;;;;;;;;;;0.70;99.90;;;;;;5066378;28;19974;-45
2022/01/08 05:54:33;;;;;;;;;;;0.60;99.90;;;;;;5049122;28;19960;-45
2022/01/08 05:57:02;;;;;;;;;;;0.60;99.90;;;;;;5066288;28;19924;-44
2022/01/08 05:59:28;;;;;;;;;;;0.60;99.90;;;;;;5055249;28;20012;-44
2022/01/08 06:01:55;;;;;;;;;;;0.60;99.90;;;;;;5051056;28;20054;-45
2022/01/08 06:04:21;;;;;;;;;;;0.60;99.90;;;;;;5057493;28;20354;-44
2022/01/08 06:06:46;;;;;;;;;;;0.50;99.90;;;;;;5070237;28;19931;-47
2022/01/08 06:09:12;;;;;;;;;;;0.60;99.90;;;;;;5037996;28;19924;-45
2022/01/08 06:11:38;;;;;;;;;;;0.50;99.90;;;;;;5049606;28;20150;-45
2022/01/08 06:14:04;;;;;;;;;;;0.50;99.90;;;;;;5050673;28;19917;-44
2022/01/08 06:16:34;;;;;;;;;;;0.50;99.90;;;;;;5068456;28;19917;-45
2022/01/08 06:19:04;;;;;;;;;;;0.50;99.90;;;;;;5062717;28;19916;-44
2022/01/08 06:21:31;;;;;;;;;;;0.50;99.90;;;;;;5030374;28;19927;-44
2022/01/08 06:23:57;;;;;;;;;;;0.60;99.90;;;;;;5046229;28;19930;-44
2022/01/08 06:26:23;;;;;;;;;;;0.50;99.90;;;;;;5035216;28;19916;-47
2022/01/08 06:28:51;;;;;;;;;;;0.50;99.90;;;;;;5035048;28;19923;-44
2022/01/08 06:31:21;;;;;;;;;;;0.50;99.90;;;;;;5058782;28;20354;-43
2022/01/08 06:33:48;;;;;;;;;;;0.60;99.90;;;;;;5048519;28;20026;-45
2022/01/08 06:36:14;;;;;;;;;;;0.50;99.90;;;;;;5067784;28;19944;-43
2022/01/08 06:38:40;;;;;;;;;;;0.50;99.90;;;;;;5065501;28;19955;-46
2022/01/08 06:41:05;;;;;;;;;;;0.40;99.90;;;;;;5048183;28;20011;-44
2022/01/08 06:43:32;;;;;;;;;;;0.50;99.90;;;;;;5033524;28;19966;-43
2022/01/08 06:45:57;;;;;;;;;;;0.40;99.90;;;;;;5063317;28;19925;-43
2022/01/08 06:48:23;;;;;;;;;;;0.40;99.90;;;;;;5064607;28;20388;-47
2022/01/08 06:50:49;;;;;;;;;;;0.50;99.90;;;;;;5061192;28;20031;-44
2022/01/08 06:53:15;;;;;;;;;;;0.40;99.90;;;;;;5056786;28;19946;-45
2022/01/08 06:55:41;;;;;;;;;;;0.40;99.90;;;;;;5051298;28;19974;-44
2022/01/08 06:58:06;;;;;;;;;;;0.40;99.90;;;;;;5066959;28;20007;-43
2022/01/08 07:00:32;;;;;;;;;;;0.40;99.90;;;;;;5063712;28;19923;-46
2022/01/08 07:02:59;;;;;;;;;;;0.40;99.90;;;;;;5067366;28;20015;-44
2022/01/08 07:05:26;;;;;;;;;;;0.30;99.90;;;;;;5079756;28;19925;-44
2022/01/08 07:07:52;;;;;;;;;;;0.30;99.90;;;;;;5033892;28;20263;-42
2022/01/08 07:10:18;;;;;;;;;;;0.30;99.90;;;;;;5061438;28;19946;-43
2022/01/08 07:12:44;;;;;;;;;;;0.30;99.90;;;;;;5046340;28;19946;-48
2022/01/08 07:15:10;;;;;;;;;;;0.40;99.90;;;;;;5047030;28;19934;-44
2022/01/08 07:17:36;;;;;;;;;;;0.30;99.90;;;;;;5065048;28;20019;-48
2022/01/08 07:20:01;;;;;;;;;;;0.30;99.90;;;;;;5062538;28;20559;-43
2022/01/08 07:22:28;;;;;;;;;;;0.30;99.90;;;;;;5054605;28;20510;-45
2022/01/08 07:24:57;;;;;;;;;;;0.30;99.90;;;;;;5083669;28;19920;-44
2022/01/08 07:27:23;;;;;;;;;;;0.30;99.90;;;;;;5064344;28;19935;-44
2022/01/08 07:29:49;;;;;;;;;;;0.30;99.90;;;;;;5046442;28;20011;-45
2022/01/08 07:32:14;;;;;;;;;;;0.30;99.90;;;;;;5066630;28;20094;-47
2022/01/08 07:34:40;;;;;;;;;;;0.30;99.90;;;;;;5078805;28;19924;-45
2022/01/08 07:37:06;;;;;;;;;;;0.30;99.90;;;;;;5048281;28;19931;-47
2022/01/08 07:39:32;;;;;;;;;;;0.30;99.90;;;;;;5050493;28;19920;-44
2022/01/08 07:41:58;;;;;;;;;;;0.30;99.90;;;;;;5064950;28;20008;-47
2022/01/08 07:44:25;;;;;;;;;;;0.30;99.90;;;;;;5065968;28;19916;-42
2022/01/08 07:46:53;;;;;;;;;;;0.30;99.90;;;;;;5070482;28;20404;-45
2022/01/08 07:49:19;;;;;;;;;;;0.40;99.90;;;;;;5063526;28;19971;-43
2022/01/08 07:51:45;;;;;;;;;;;0.30;99.90;;;;;;5068056;28;19920;-45
2022/01/08 07:54:11;;;;;;;;;;;0.30;99.90;;;;;;5064960;28;19916;-42
2022/01/08 07:56:37;;;;;;;;;;;0.40;99.90;;;;;;5061890;28;19932;-47
2022/01/08 07:59:03;;;;;;;;;;;0.40;99.90;;;;;;5059514;28;20266;-45
2022/01/08 08:01:29;;;;;;;;;;;0.40;99.90;;;;;;5044590;28;19924;-46
2022/01/08 08:03:56;;;;;;;;;;;0.40;99.90;;;;;;5047818;28;19916;-46
2022/01/08 08:06:21;;;;;;;;;;;0.40;99.90;;;;;;5046218;28;20405;-45
2022/01/08 08:08:48;;;;;;;;;;;0.40;99.90;;;;;;5047849;28;19920;-45
2022/01/08 08:11:14;;;;;;;;;;;0.40;99.90;;;;;;5027964;28;20228;-48
2022/01/08 08:13:40;;;;;;;;;;;0.40;99.90;;;;;;5066004;28;20424;-43
2022/01/08 08:16:07;;;;;;;;;;;0.40;99.90;;;;;;5061382;28;19954;-44
2022/01/08 08:18:33;;;;;;;;;;;0.50;99.90;;;;;;5062875;28;20338;-43
2022/01/08 08:20:58;;;;;;;;;;;0.50;99.90;;;;;;5029763;28;19927;-43
2022/01/08 08:23:24;;;;;;;;;;;0.50;99.90;;;;;;5046598;28;19999;-45
2022/01/08 08:25:50;;;;;;;;;;;0.50;99.90;;;;;;5046694;28;19974;-44
2022/01/08 08:28:17;;;;;;;;;;;0.60;99.90;;;;;;5029519;28;20361;-45
2022/01/08 08:30:43;;;;;;;;;;;0.60;99.90;;;;;;5046689;28;19931;-44
2022/01/08 08:33:09;;;;;;;;;;;0.70;99.90;;;;;;5047915;28;19948;-44
2022/01/08 08:35:38;;;;;;;;;;;0.70;99.90;;;;;;5065851;28;19916;-46
2022/01/08 08:38:04;;;;;;;;;;;0.80;99.90;;;;;;5063126;28;19981;-44
2022/01/08 08:40:30;;;;;;;;;;;0.80;99.90;;;;;;5046193;28;19963;-45
2022/01/08 08:42:57;;;;;;;;;;;0.90;99.90;;;;;;5064746;28;20353;-45
2022/01/08 08:45:23;;;;;;;;;;;0.90;99.90;;;;;;5043572;28;19935;-48
2022/01/08 08:47:49;;;;;;;;;;;1.60;99.90;;;;;;5063553;28;19917;-49
2022/01/08 08:50:15;;;;;;;;;;;1.00;99.90;;;;;;5045477;28;20397;-44
2022/01/08 08:52:41;;;;;;;;;;;1.10;99.90;;;;;;5044705;28;19924;-48
2022/01/08 08:55:10;;;;;;;;;;;1.10;99.90;;;;;;5062197;28;20416;-46
2022/01/08 08:57:36;;;;;;;;;;;1.20;99.90;;;;;;5063689;28;20540;-46
2022/01/08 09:00:02;;;;;;;;;;;1.20;99.90;;;;;;5043663;28;20011;-48
2022/01/08 09:02:28;;;;;;;;;;;1.20;99.90;;;;;;5061655;28;19924;-46
2022/01/08 09:04:54;;;;;;;;;;;1.30;99.90;;;;;;5043849;28;20389;-45
2022/01/08 09:07:20;;;;;;;;;;;1.30;99.90;;;;;;5064723;28;19916;-49
2022/01/08 09:09:46;;;;;;;;;;;1.30;99.90;;;;;;5051430;28;20375;-45
2022/01/08 09:12:15;;;;;;;;;;;1.30;99.90;;;;;;5048366;28;19954;-46
2022/01/08 09:14:42;;;;;;;;;;;1.30;99.90;;;;;;5060052;28;20410;-45
2022/01/08 09:17:10;;;;;;;;;;;1.40;99.90;;;;;;5049314;28;19944;-48
2022/01/08 09:19:36;;;;;;;;;;;1.40;99.90;;;;;;5046125;28;19916;-48
2022/01/08 09:22:02;;;;;;;;;;;1.40;99.90;;;;;;5046385;28;20374;-49
2022/01/08 10:19:24;;;;;;;;;;;2.50;99.90;;;;;;5085670;28;20335;-48
2022/01/08 10:21:54;;;;;;;;;;;2.50;99.90;;;;;;5086518;28;20353;-46
2022/01/08 10:24:23;;;;;;;;;;;2.50;99.90;;;;;;5071963;28;20244;-48
2022/01/08 10:26:51;;;;;;;;;;;2.60;99.90;;;;;;5089006;28;19927;-46
2022/01/08 10:29:19;;;;;;;;;;;2.60;99.90;;;;;;5085022;28;19942;-47
2022/01/08 10:31:48;;;;;;;;;;;2.70;99.90;;;;;;5085876;28;19920;-45
2022/01/08 10:34:16;;;;;;;;;;;2.70;99.90;;;;;;5086226;28;19924;-50
2022/01/08 10:36:56;;;;;;;;;;;2.70;99.90;;;;;;5088216;28;19919;-47
2022/01/08 10:39:33;;;;;;;;;;;2.70;99.90;;;;;;5070112;28;20626;-46
2022/01/08 10:42:01;;;;;;;;;;;2.70;99.90;;;;;;5099932;27;20014;-45
2022/01/08 10:44:28;;;;;;;;;;;2.70;99.90;;;;;;5087994;28;20400;-45
2022/01/08 10:47:00;;;;;;;;;;;2.70;99.90;;;;;;5084138;28;19917;-45
2022/01/08 10:49:32;;;;;;;;;;;2.80;99.90;;;;;;5067781;28;20507;-47
2022/01/08 10:52:00;;;;;;;;;;;2.80;99.90;;;;;;5085156;28;19946;-44
2022/01/08 10:54:28;;;;;;;;;;;2.80;99.90;;;;;;5087646;28;19920;-43
2022/01/08 10:56:59;;;;;;;;;;;2.80;99.90;;;;;;5086434;28;19916;-46
2022/01/08 10:59:26;;;;;;;;;;;2.80;99.90;;;;;;5100933;27;19920;-46
2022/01/08 11:01:56;;;;;;;;;;;2.80;99.90;;;;;;5098223;28;19930;-44
2022/01/08 11:04:34;;;;;;;;;;;2.80;99.90;;;;;;5087310;28;20014;-44
2022/01/08 11:07:29;;;;;;;;;;;2.90;99.90;;;;;;5064211;28;19924;-46
2022/01/08 11:10:05;;;;;;;;;;;2.90;99.90;;;;;;5091348;27;19923;-45
2022/01/08 11:12:36;;;;;;;;;;;2.90;99.90;;;;;;5071367;28;20393;-45
2022/01/08 11:17:39;;;;;;;;;;;2.90;99.90;;;;;;5065517;28;19928;-45
2022/01/08 11:20:08;;;;;;;;;;;2.90;99.90;;;;;;5072336;28;20492;-46
2022/01/08 11:22:37;;;;;;;;;;;2.90;99.90;;;;;;5088065;28;19916;-46
2022/01/08 11:25:05;;;;;;;;;;;3.00;99.90;;;;;;5060456;28;19915;-44
2022/01/08 11:27:46;;;;;;;;;;;3.00;99.90;;;;;;5070121;28;20058;-45
2022/01/08 11:30:17;;;;;;;;;;;3.10;99.90;;;;;;5067260;28;20275;-45
2022/01/08 11:32:44;;;;;;;;;;;3.10;99.90;;;;;;5087603;28;20255;-49
2022/01/08 11:35:11;;;;;;;;;;;3.20;99.90;;;;;;5070807;28;19924;-45
2022/01/08 11:37:45;;;;;;;;;;;3.10;99.90;;;;;;5084102;28;19924;-45
2022/01/08 11:40:12;;;;;;;;;;;3.20;99.90;;;;;;5056222;28;19916;-45
2022/01/08 11:42:38;;;;;;;;;;;3.20;99.90;;;;;;5085276;28;20011;-44
2022/01/08 11:45:05;;;;;;;;;;;3.30;99.90;;;;;;5085789;28;20329;-46
2022/01/08 11:47:32;;;;;;;;;;;3.40;99.90;;;;;;5071864;28;20000;-47
2022/01/08 11:50:00;;;;;;;;;;;3.30;99.90;;;;;;5077232;28;19924;-47
2022/01/08 11:52:26;;;;;;;;;;;3.40;99.90;;;;;;5071401;28;19915;-46
2022/01/08 11:54:52;;;;;;;;;;;3.40;99.90;;;;;;5072114;28;20258;-45
2022/01/08 11:57:28;;;;;;;;;;;3.50;99.90;;;;;;5088182;28;20062;-44
2022/01/08 11:59:57;;;;;;;;;;;3.50;99.90;;;;;;5069154;28;19917;-44
2022/01/08 12:02:33;;;;;;;;;;;3.50;99.90;;;;;;5088396;28;19916;-45
2022/01/08 12:05:01;;;;;;;;;;;3.50;99.90;;;;;;5088710;28;19920;-47
2022/01/08 12:07:33;;;;;;;;;;;3.50;99.90;;;;;;5057344;28;19928;-45
2022/01/08 12:10:02;;;;;;;;;;;3.50;99.90;;;;;;5104034;27;20002;-46
2022/01/08 12:12:47;;;;;;;;;;;3.50;99.90;;;;;;5069154;28;20369;-46
2022/01/08 12:15:13;;;;;;;;;;;3.50;99.90;;;;;;5071086;28;20404;-48
2022/01/08 12:17:52;;;;;;;;;;;3.50;99.90;;;;;;5063849;28;19951;-49
2022/01/08 12:20:47;;;;;;;;;;;3.50;99.90;;;;;;5059530;28;20003;-48
2022/01/08 12:23:22;;;;;;;;;;;3.50;99.90;;;;;;5047045;28;19920;-45
2022/01/08 12:25:48;;;;;;;;;;;3.50;99.90;;;;;;5044672;28;19920;-45
2022/01/08 12:28:33;;;;;;;;;;;3.50;99.90;;;;;;5062495;28;20007;-47
2022/01/08 13:19:06;;;;;;;;;;;3.80;99.90;;;;;;5088865;27;19923;-45
2022/01/08 13:21:36;;;;;;;;;;;4.00;99.90;;;;;;5085559;28;19963;-45
2022/01/08 13:24:05;;;;;;;;;;;4.10;99.90;;;;;;5084059;28;19920;-45
2022/01/08 13:26:37;;;;;;;;;;;4.20;99.90;;;;;;5070846;28;19924;-46
2022/01/08 13:29:16;;;;;;;;;;;4.30;99.90;;;;;;5089014;28;19924;-48
2022/01/08 13:31:47;;;;;;;;;;;4.30;99.90;;;;;;5083770;28;19920;-48
2022/01/08 13:37:35;;;;;;;;;;;4.50;99.90;;;;;;5089468;28;19919;-45
2022/01/08 13:40:03;;;;;;;;;;;4.60;99.90;;;;;;5057003;28;20326;-47
2022/01/08 13:42:30;;;;;;;;;;;4.50;99.90;;;;;;5071125;28;20691;-45
2022/01/08 13:44:56;;;;;;;;;;;4.50;99.90;;;;;;5073427;28;19922;-48
2022/01/08 13:47:28;;;;;;;;;;;4.60;99.90;;;;;;5089900;28;20002;-45
2022/01/08 13:49:55;;;;;;;;;;;4.50;99.90;;;;;;5088269;28;19968;-48
2022/01/08 14:02:50;;;;;;;;;;;4.50;99.90;;;;;;5092875;28;19915;-43
2022/01/08 14:05:16;;;;;;;;;;;4.50;99.90;;;;;;5087008;28;19924;-44
2022/01/08 14:07:42;;;;;;;;;;;4.40;99.90;;;;;;5069787;28;20302;-44
2022/01/08 14:10:08;;;;;;;;;;;4.30;99.90;;;;;;5071301;28;19930;-45
2022/01/08 14:12:34;;;;;;;;;;;4.30;99.90;;;;;;5103044;27;19928;-46
2022/01/08 14:15:04;;;;;;;;;;;4.30;99.90;;;;;;5070731;28;19920;-46
2022/01/08 14:17:30;;;;;;;;;;;4.40;99.90;;;;;;5071645;28;19924;-47
2022/01/08 14:19:58;;;;;;;;;;;4.40;99.90;;;;;;5073797;28;20512;-44
2022/01/08 14:22:23;;;;;;;;;;;4.40;99.90;;;;;;5089113;28;19995;-42
2022/01/08 14:24:51;;;;;;;;;;;4.50;99.90;;;;;;5086193;28;20022;-44
2022/01/08 14:27:19;;;;;;;;;;;4.50;99.90;;;;;;5067496;28;19920;-46
2022/01/08 14:30:05;;;;;;;;;;;4.40;99.90;;;;;;5100068;27;19974;-47
2022/01/08 14:32:31;;;;;;;;;;;4.40;99.90;;;;;;5100596;27;19937;-45
2022/01/08 14:35:00;;;;;;;;;;;4.40;99.90;;;;;;5087952;28;19924;-47
2022/01/08 14:37:32;;;;;;;;;;;4.30;99.90;;;;;;5085889;28;19924;-47
2022/01/08 14:40:02;;;;;;;;;;;4.30;99.90;;;;;;5086349;28;19959;-47
2022/01/08 14:42:28;;;;;;;;;;;4.30;99.90;;;;;;5056988;28;20007;-44
2022/01/08 14:44:57;;;;;;;;;;;4.30;99.90;;;;;;5054722;28;19915;-47
2022/01/08 14:47:31;;;;;;;;;;;4.20;99.90;;;;;;5084915;28;19952;-44
2022/01/08 14:49:56;;;;;;;;;;;4.20;99.90;;;;;;5054220;28;19998;-45
2022/01/08 14:52:22;;;;;;;;;;;4.10;99.90;;;;;;5057865;28;20019;-46
2022/01/08 14:54:48;;;;;;;;;;;3.90;99.90;;;;;;5079985;28;19923;-44
2022/01/08 14:57:16;;;;;;;;;;;3.90;99.90;;;;;;5095439;27;19924;-45
2022/01/08 14:59:42;;;;;;;;;;;3.90;99.90;;;;;;5069141;28;20034;-47
2022/01/08 15:02:08;;;;;;;;;;;3.90;99.90;;;;;;5084592;28;19924;-45
2022/01/08 15:04:33;;;;;;;;;;;3.90;99.90;;;;;;5074203;28;19991;-45
2022/01/08 15:07:00;;;;;;;;;;;4.00;99.90;;;;;;5083427;28;19916;-45
2022/01/08 15:09:28;;;;;;;;;;;4.10;99.90;;;;;;5067553;28;19924;-46
2022/01/08 15:11:54;;;;;;;;;;;4.20;99.90;;;;;;5054600;28;19926;-47
2022/01/08 15:14:20;;;;;;;;;;;4.10;99.90;;;;;;5073159;28;19919;-48
2022/01/08 15:16:46;;;;;;;;;;;4.20;99.90;;;;;;5085716;28;19970;-45
2022/01/08 15:19:12;;;;;;;;;;;4.30;99.90;;;;;;5068055;28;20301;-45
2022/01/08 15:25:30;;;;;;;;;;;4.20;99.90;;;;;;5094050;28;19926;-47
2022/01/08 15:27:58;;;;;;;;;;;4.10;99.90;;;;;;5071158;28;19995;-47
2022/01/08 15:30:24;;;;;;;;;;;4.00;99.90;;;;;;5071355;28;19916;-47
2022/01/08 15:32:50;;;;;;;;;;;3.90;99.90;;;;;;5070601;28;20393;-45
2022/01/08 15:35:18;;;;;;;;;;;3.80;99.90;;;;;;5083026;28;19922;-44
2022/01/08 15:37:44;;;;;;;;;;;3.90;99.90;;;;;;5057091;28;20382;-43
2022/01/08 15:40:10;;;;;;;;;;;3.80;99.90;;;;;;5084455;28;20305;-44
2022/01/08 15:42:36;;;;;;;;;;;3.80;99.90;;;;;;5082651;28;20407;-44
2022/01/08 15:45:05;;;;;;;;;;;3.80;99.90;;;;;;5070432;28;19924;-44
2022/01/08 15:47:32;;;;;;;;;;;3.80;99.90;;;;;;5052888;28;20399;-47
2022/01/08 15:49:58;;;;;;;;;;;3.70;99.90;;;;;;5082192;28;19960;-44
2022/01/08 15:52:25;;;;;;;;;;;3.60;99.90;;;;;;5067685;28;19920;-43
2022/01/08 15:54:52;;;;;;;;;;;3.60;99.90;;;;;;5052999;28;19927;-46
2022/01/08 15:57:19;;;;;;;;;;;3.50;99.90;;;;;;5051700;28;20606;-48
2022/01/08 15:59:45;;;;;;;;;;;3.50;99.90;;;;;;5083797;28;20376;-45
2022/01/08 16:02:11;;;;;;;;;;;3.50;99.90;;;;;;5087481;28;19982;-48
2022/01/08 16:04:37;;;;;;;;;;;3.50;99.90;;;;;;5056179;28;20015;-46
2022/01/08 16:07:03;;;;;;;;;;;3.50;99.90;;;;;;5086641;28;20006;-44
2022/01/08 16:09:29;;;;;;;;;;;3.50;99.90;;;;;;5072861;28;19931;-48
2022/01/08 16:11:57;;;;;;;;;;;3.50;99.90;;;;;;5070550;28;19923;-46
2022/01/08 16:14:23;;;;;;;;;;;3.50;99.90;;;;;;5083266;28;20023;-47
2022/01/08 16:16:50;;;;;;;;;;;3.50;99.90;;;;;;5082351;28;19999;-44
2022/01/08 16:19:18;;;;;;;;;;;3.50;99.90;;;;;;5065053;28;20014;-45
2022/01/08 16:21:46;;;;;;;;;;;3.50;99.90;;;;;;5082599;28;20389;-49
2022/01/08 16:24:12;;;;;;;;;;;3.50;99.90;;;;;;5081903;28;20369;-47
2022/01/08 16:26:39;;;;;;;;;;;3.50;99.90;;;;;;5083184;28;19936;-47
2022/01/08 16:29:05;;;;;;;;;;;3.50;99.90;;;;;;5091476;28;20320;-44
2022/01/08 16:31:31;;;;;;;;;;;3.50;99.90;;;;;;5063941;28;19920;-46
2022/01/08 16:34:00;;;;;;;;;;;3.40;99.90;;;;;;5061656;28;19924;-44
2022/01/08 16:36:27;;;;;;;;;;;3.40;99.90;;;;;;5059566;28;19974;-44
2022/01/08 16:38:53;;;;;;;;;;;3.30;99.90;;;;;;5057553;28;19926;-49
2022/01/08 16:41:19;;;;;;;;;;;3.30;99.90;;;;;;5059732;28;19924;-47
2022/01/08 16:43:45;;;;;;;;;;;3.20;99.90;;;;;;5058696;28;19924;-46
2022/01/08 16:46:13;;;;;;;;;;;3.20;99.90;;;;;;5060799;28;19945;-46
2022/01/08 16:48:39;;;;;;;;;;;3.10;99.90;;;;;;5073355;28;19998;-46
2022/01/08 16:51:06;;;;;;;;;;;3.10;99.90;;;;;;5046867;28;20097;-44
2022/01/08 16:53:39;;;;;;;;;;;3.10;99.90;;;;;;5045682;28;19970;-49
2022/01/08 16:56:06;;;;;;;;;;;3.00;99.90;;;;;;5057026;28;19920;-47
2022/01/08 16:58:33;;;;;;;;;;;3.00;99.90;;;;;;5070759;28;20270;-47